sensor_id;sensor_type;location;lat;lon;timestamp;P1;durP1;ratioP1;P2;durP2;ratioP2
69748;SDS011;57019;52.354;6.584;2022-10-28T00:00:29;10.13;;;2.63;;
69748;SDS011;57019;52.354;6.584;2022-10-28T00:02:55;8.07;;;2.67;;
69748;SDS011;57019;52.354;6.584;2022-10-28T00:05:20;7.43;;;2.80;;
69748;SDS011;57019;52.354;6.584;2022-10-28T00:07:45;8.47;;;2.67;;
69748;SDS011;57019;52.354;6.584;2022-10-28T00:10:10;9.13;;;2.83;;
69748;SDS011;57019;52.354;6.584;2022-10-28T00:12:36;8.27;;;2.70;;
69748;SDS011;57019;52.354;6.584;2022-10-28T00:15:02;8.38;;;2.40;;
69748;SDS011;57019;52.354;6.584;2022-10-28T00:17:28;7.97;;;2.70;;
69748;SDS011;57019;52.354;6.584;2022-10-28T00:19:53;7.30;;;2.63;;
69748;SDS011;57019;52.354;6.584;2022-10-28T00:22:19;7.38;;;2.65;;
69748;SDS011;57019;52.354;6.584;2022-10-28T00:24:44;8.67;;;2.60;;
69748;SDS011;57019;52.354;6.584;2022-10-28T00:27:09;8.00;;;3.00;;
69748;SDS011;57019;52.354;6.584;2022-10-28T00:29:35;7.50;;;2.70;;
69748;SDS011;57019;52.354;6.584;2022-10-28T00:32:00;7.80;;;2.90;;
69748;SDS011;57019;52.354;6.584;2022-10-28T00:34:25;8.50;;;2.67;;
69748;SDS011;57019;52.354;6.584;2022-10-28T00:36:51;7.97;;;2.50;;
69748;SDS011;57019;52.354;6.584;2022-10-28T00:39:17;7.53;;;2.80;;
69748;SDS011;57019;52.354;6.584;2022-10-28T00:41:46;7.45;;;2.70;;
69748;SDS011;57019;52.354;6.584;2022-10-28T00:47:04;8.90;;;3.08;;
69748;SDS011;57019;52.354;6.584;2022-10-28T00:49:36;7.87;;;2.97;;
69748;SDS011;57019;52.354;6.584;2022-10-28T00:52:07;7.25;;;2.80;;
69748;SDS011;57019;52.354;6.584;2022-10-28T00:54:36;8.18;;;2.88;;
69748;SDS011;57019;52.354;6.584;2022-10-28T00:57:04;10.43;;;2.90;;
69748;SDS011;57019;52.354;6.584;2022-10-28T00:59:35;7.78;;;2.72;;
69748;SDS011;57019;52.354;6.584;2022-10-28T01:02:03;7.60;;;2.80;;
69748;SDS011;57019;52.354;6.584;2022-10-28T01:04:30;7.28;;;2.97;;
69748;SDS011;57019;52.354;6.584;2022-10-28T01:06:55;7.20;;;3.00;;
69748;SDS011;57019;52.354;6.584;2022-10-28T01:09:22;7.60;;;2.70;;
69748;SDS011;57019;52.354;6.584;2022-10-28T01:14:36;8.15;;;2.90;;
69748;SDS011;57019;52.354;6.584;2022-10-28T01:17:11;7.03;;;2.80;;
69748;SDS011;57019;52.354;6.584;2022-10-28T01:30:20;8.55;;;2.92;;
69748;SDS011;57019;52.354;6.584;2022-10-28T01:33:03;8.90;;;2.92;;
69748;SDS011;57019;52.354;6.584;2022-10-28T01:35:46;7.47;;;2.70;;
69748;SDS011;57019;52.354;6.584;2022-10-28T01:38:26;7.88;;;2.67;;
69748;SDS011;57019;52.354;6.584;2022-10-28T01:41:10;8.35;;;2.88;;
69748;SDS011;57019;52.354;6.584;2022-10-28T01:46:19;7.80;;;2.90;;
69748;SDS011;57019;52.354;6.584;2022-10-28T01:48:51;7.17;;;2.83;;
69748;SDS011;57019;52.354;6.584;2022-10-28T01:51:23;7.75;;;2.60;;
69748;SDS011;57019;52.354;6.584;2022-10-28T01:53:54;7.70;;;2.70;;
69748;SDS011;57019;52.354;6.584;2022-10-28T01:56:23;8.60;;;3.00;;
69748;SDS011;57019;52.354;6.584;2022-10-28T01:58:52;8.75;;;2.95;;
69748;SDS011;57019;52.354;6.584;2022-10-28T02:01:20;9.23;;;2.80;;
69748;SDS011;57019;52.354;6.584;2022-10-28T02:03:47;7.40;;;2.70;;
69748;SDS011;57019;52.354;6.584;2022-10-28T02:06:17;8.60;;;2.78;;
69748;SDS011;57019;52.354;6.584;2022-10-28T02:11:52;8.48;;;2.92;;
69748;SDS011;57019;52.354;6.584;2022-10-28T02:20:17;7.75;;;2.95;;
69748;SDS011;57019;52.354;6.584;2022-10-28T02:25:53;7.53;;;2.90;;
69748;SDS011;57019;52.354;6.584;2022-10-28T02:33:54;8.10;;;3.23;;
69748;SDS011;57019;52.354;6.584;2022-10-28T02:36:23;7.20;;;2.90;;
69748;SDS011;57019;52.354;6.584;2022-10-28T02:38:52;8.63;;;2.80;;
69748;SDS011;57019;52.354;6.584;2022-10-28T02:44:14;7.03;;;2.80;;
69748;SDS011;57019;52.354;6.584;2022-10-28T02:46:44;7.63;;;2.85;;
69748;SDS011;57019;52.354;6.584;2022-10-28T02:49:12;7.85;;;2.92;;
69748;SDS011;57019;52.354;6.584;2022-10-28T02:51:40;6.67;;;2.43;;
69748;SDS011;57019;52.354;6.584;2022-10-28T02:54:10;7.07;;;2.60;;
69748;SDS011;57019;52.354;6.584;2022-10-28T02:56:50;7.90;;;2.90;;
69748;SDS011;57019;52.354;6.584;2022-10-28T02:59:19;7.38;;;2.65;;
69748;SDS011;57019;52.354;6.584;2022-10-28T03:01:48;8.10;;;2.83;;
69748;SDS011;57019;52.354;6.584;2022-10-28T03:04:14;7.43;;;2.50;;
69748;SDS011;57019;52.354;6.584;2022-10-28T03:06:39;7.53;;;2.90;;
69748;SDS011;57019;52.354;6.584;2022-10-28T03:09:04;6.80;;;2.80;;
69748;SDS011;57019;52.354;6.584;2022-10-28T03:11:30;8.63;;;2.90;;
69748;SDS011;57019;52.354;6.584;2022-10-28T03:13:55;8.43;;;3.03;;
69748;SDS011;57019;52.354;6.584;2022-10-28T03:16:20;7.63;;;3.00;;
69748;SDS011;57019;52.354;6.584;2022-10-28T03:18:46;7.53;;;2.70;;
69748;SDS011;57019;52.354;6.584;2022-10-28T03:21:11;7.90;;;2.80;;
69748;SDS011;57019;52.354;6.584;2022-10-28T03:23:36;6.53;;;2.63;;
69748;SDS011;57019;52.354;6.584;2022-10-28T03:26:02;7.20;;;2.67;;
69748;SDS011;57019;52.354;6.584;2022-10-28T03:28:27;8.87;;;2.90;;
69748;SDS011;57019;52.354;6.584;2022-10-28T03:30:52;7.53;;;2.77;;
69748;SDS011;57019;52.354;6.584;2022-10-28T03:33:18;6.80;;;2.60;;
69748;SDS011;57019;52.354;6.584;2022-10-28T03:35:43;8.82;;;3.15;;
69748;SDS011;57019;52.354;6.584;2022-10-28T03:38:08;8.90;;;2.70;;
69748;SDS011;57019;52.354;6.584;2022-10-28T03:40:34;7.27;;;3.00;;
69748;SDS011;57019;52.354;6.584;2022-10-28T03:42:59;10.03;;;2.97;;
69748;SDS011;57019;52.354;6.584;2022-10-28T03:45:25;7.80;;;2.80;;
69748;SDS011;57019;52.354;6.584;2022-10-28T03:47:50;8.33;;;2.90;;
69748;SDS011;57019;52.354;6.584;2022-10-28T03:50:16;9.97;;;3.03;;
69748;SDS011;57019;52.354;6.584;2022-10-28T03:52:41;7.47;;;2.70;;
69748;SDS011;57019;52.354;6.584;2022-10-28T03:55:08;7.72;;;2.90;;
69748;SDS011;57019;52.354;6.584;2022-10-28T03:57:33;7.63;;;2.97;;
69748;SDS011;57019;52.354;6.584;2022-10-28T03:59:59;7.57;;;3.10;;
69748;SDS011;57019;52.354;6.584;2022-10-28T04:02:24;8.45;;;2.95;;
69748;SDS011;57019;52.354;6.584;2022-10-28T04:04:50;7.07;;;2.70;;
69748;SDS011;57019;52.354;6.584;2022-10-28T04:07:16;7.75;;;2.97;;
69748;SDS011;57019;52.354;6.584;2022-10-28T04:09:41;8.13;;;3.00;;
69748;SDS011;57019;52.354;6.584;2022-10-28T04:12:08;9.97;;;3.07;;
69748;SDS011;57019;52.354;6.584;2022-10-28T04:14:34;7.75;;;2.60;;
69748;SDS011;57019;52.354;6.584;2022-10-28T04:17:00;8.17;;;3.10;;
69748;SDS011;57019;52.354;6.584;2022-10-28T04:19:25;7.70;;;3.07;;
69748;SDS011;57019;52.354;6.584;2022-10-28T04:21:50;9.60;;;3.30;;
69748;SDS011;57019;52.354;6.584;2022-10-28T04:24:16;7.60;;;3.00;;
69748;SDS011;57019;52.354;6.584;2022-10-28T04:26:41;7.37;;;2.70;;
69748;SDS011;57019;52.354;6.584;2022-10-28T04:29:06;7.40;;;2.87;;
69748;SDS011;57019;52.354;6.584;2022-10-28T04:31:32;7.47;;;3.08;;
69748;SDS011;57019;52.354;6.584;2022-10-28T04:33:57;9.50;;;2.97;;
69748;SDS011;57019;52.354;6.584;2022-10-28T04:36:22;7.63;;;2.80;;
69748;SDS011;57019;52.354;6.584;2022-10-28T04:38:48;8.07;;;3.23;;
69748;SDS011;57019;52.354;6.584;2022-10-28T04:41:15;7.85;;;3.03;;
69748;SDS011;57019;52.354;6.584;2022-10-28T04:43:41;9.73;;;2.97;;
69748;SDS011;57019;52.354;6.584;2022-10-28T04:46:07;8.40;;;2.80;;
69748;SDS011;57019;52.354;6.584;2022-10-28T04:48:32;8.80;;;3.03;;
69748;SDS011;57019;52.354;6.584;2022-10-28T04:50:58;9.10;;;2.90;;
69748;SDS011;57019;52.354;6.584;2022-10-28T04:53:23;6.73;;;2.40;;
69748;SDS011;57019;52.354;6.584;2022-10-28T04:55:48;7.83;;;2.67;;
69748;SDS011;57019;52.354;6.584;2022-10-28T04:58:14;9.00;;;2.90;;
69748;SDS011;57019;52.354;6.584;2022-10-28T05:00:39;7.77;;;2.80;;
69748;SDS011;57019;52.354;6.584;2022-10-28T05:03:05;8.37;;;2.60;;
69748;SDS011;57019;52.354;6.584;2022-10-28T05:05:30;8.65;;;2.80;;
69748;SDS011;57019;52.354;6.584;2022-10-28T05:07:56;8.13;;;2.67;;
69748;SDS011;57019;52.354;6.584;2022-10-28T05:10:21;10.07;;;3.00;;
69748;SDS011;57019;52.354;6.584;2022-10-28T05:12:46;9.33;;;2.83;;
69748;SDS011;57019;52.354;6.584;2022-10-28T05:15:12;8.35;;;2.92;;
69748;SDS011;57019;52.354;6.584;2022-10-28T05:17:39;9.23;;;3.30;;
69748;SDS011;57019;52.354;6.584;2022-10-28T05:20:07;10.63;;;2.92;;
69748;SDS011;57019;52.354;6.584;2022-10-28T05:22:33;7.85;;;2.70;;
69748;SDS011;57019;52.354;6.584;2022-10-28T05:24:58;10.70;;;2.90;;
69748;SDS011;57019;52.354;6.584;2022-10-28T05:27:24;8.43;;;2.77;;
69748;SDS011;57019;52.354;6.584;2022-10-28T05:29:49;9.45;;;2.92;;
69748;SDS011;57019;52.354;6.584;2022-10-28T05:32:14;8.77;;;2.90;;
69748;SDS011;57019;52.354;6.584;2022-10-28T05:34:40;10.23;;;2.90;;
69748;SDS011;57019;52.354;6.584;2022-10-28T05:37:05;8.57;;;2.70;;
69748;SDS011;57019;52.354;6.584;2022-10-28T05:39:30;10.27;;;2.97;;
69748;SDS011;57019;52.354;6.584;2022-10-28T05:41:56;8.40;;;2.77;;
69748;SDS011;57019;52.354;6.584;2022-10-28T05:44:21;9.53;;;2.80;;
69748;SDS011;57019;52.354;6.584;2022-10-28T05:46:46;11.40;;;3.00;;
69748;SDS011;57019;52.354;6.584;2022-10-28T05:49:12;8.65;;;2.80;;
69748;SDS011;57019;52.354;6.584;2022-10-28T05:51:37;9.77;;;3.00;;
69748;SDS011;57019;52.354;6.584;2022-10-28T05:54:02;9.87;;;2.83;;
69748;SDS011;57019;52.354;6.584;2022-10-28T05:56:28;9.97;;;2.90;;
69748;SDS011;57019;52.354;6.584;2022-10-28T05:58:53;9.63;;;3.00;;
69748;SDS011;57019;52.354;6.584;2022-10-28T06:01:18;8.67;;;3.00;;
69748;SDS011;57019;52.354;6.584;2022-10-28T06:03:44;7.93;;;2.90;;
69748;SDS011;57019;52.354;6.584;2022-10-28T06:06:09;10.10;;;3.00;;
69748;SDS011;57019;52.354;6.584;2022-10-28T06:08:34;10.97;;;3.13;;
69748;SDS011;57019;52.354;6.584;2022-10-28T06:11:00;9.27;;;2.87;;
69748;SDS011;57019;52.354;6.584;2022-10-28T06:13:26;9.33;;;2.80;;
69748;SDS011;57019;52.354;6.584;2022-10-28T06:15:54;9.10;;;3.10;;
69748;SDS011;57019;52.354;6.584;2022-10-28T06:18:21;10.25;;;2.80;;
69748;SDS011;57019;52.354;6.584;2022-10-28T06:20:54;11.70;;;3.30;;
69748;SDS011;57019;52.354;6.584;2022-10-28T06:23:21;9.77;;;3.08;;
69748;SDS011;57019;52.354;6.584;2022-10-28T06:25:48;8.95;;;3.15;;
69748;SDS011;57019;52.354;6.584;2022-10-28T06:28:14;10.30;;;3.25;;
69748;SDS011;57019;52.354;6.584;2022-10-28T06:30:39;10.27;;;2.90;;
69748;SDS011;57019;52.354;6.584;2022-10-28T06:33:04;10.63;;;3.13;;
69748;SDS011;57019;52.354;6.584;2022-10-28T06:35:30;12.40;;;3.80;;
69748;SDS011;57019;52.354;6.584;2022-10-28T06:37:55;10.47;;;3.63;;
69748;SDS011;57019;52.354;6.584;2022-10-28T06:40:21;17.15;;;4.00;;
69748;SDS011;57019;52.354;6.584;2022-10-28T06:42:47;12.63;;;3.72;;
69748;SDS011;57019;52.354;6.584;2022-10-28T06:45:12;12.23;;;4.10;;
69748;SDS011;57019;52.354;6.584;2022-10-28T06:47:38;13.47;;;4.17;;
69748;SDS011;57019;52.354;6.584;2022-10-28T06:50:03;13.53;;;4.40;;
69748;SDS011;57019;52.354;6.584;2022-10-28T06:52:29;13.10;;;4.53;;
69748;SDS011;57019;52.354;6.584;2022-10-28T06:54:54;13.87;;;4.60;;
69748;SDS011;57019;52.354;6.584;2022-10-28T06:57:19;10.80;;;4.10;;
69748;SDS011;57019;52.354;6.584;2022-10-28T06:59:45;11.30;;;4.00;;
69748;SDS011;57019;52.354;6.584;2022-10-28T07:02:10;12.60;;;4.47;;
69748;SDS011;57019;52.354;6.584;2022-10-28T07:04:36;12.23;;;4.43;;
69748;SDS011;57019;52.354;6.584;2022-10-28T07:07:01;11.77;;;3.80;;
69748;SDS011;57019;52.354;6.584;2022-10-28T07:09:27;17.63;;;4.43;;
69748;SDS011;57019;52.354;6.584;2022-10-28T07:11:52;13.83;;;3.73;;
69748;SDS011;57019;52.354;6.584;2022-10-28T07:14:17;13.02;;;4.30;;
69748;SDS011;57019;52.354;6.584;2022-10-28T07:16:43;13.63;;;4.57;;
69748;SDS011;57019;52.354;6.584;2022-10-28T07:19:08;13.57;;;4.27;;
69748;SDS011;57019;52.354;6.584;2022-10-28T07:21:34;12.43;;;4.07;;
69748;SDS011;57019;52.354;6.584;2022-10-28T07:23:59;11.87;;;4.20;;
69748;SDS011;57019;52.354;6.584;2022-10-28T07:26:25;13.33;;;4.03;;
69748;SDS011;57019;52.354;6.584;2022-10-28T07:28:51;14.07;;;4.40;;
69748;SDS011;57019;52.354;6.584;2022-10-28T07:31:16;12.45;;;4.03;;
69748;SDS011;57019;52.354;6.584;2022-10-28T07:33:41;13.57;;;4.60;;
69748;SDS011;57019;52.354;6.584;2022-10-28T07:36:07;10.50;;;3.87;;
69748;SDS011;57019;52.354;6.584;2022-10-28T07:38:33;12.88;;;4.30;;
69748;SDS011;57019;52.354;6.584;2022-10-28T07:41:05;9.95;;;4.00;;
69748;SDS011;57019;52.354;6.584;2022-10-28T07:43:38;10.73;;;3.90;;
69748;SDS011;57019;52.354;6.584;2022-10-28T07:46:04;13.23;;;3.80;;
69748;SDS011;57019;52.354;6.584;2022-10-28T07:48:31;13.02;;;4.28;;
69748;SDS011;57019;52.354;6.584;2022-10-28T07:51:01;12.32;;;3.80;;
69748;SDS011;57019;52.354;6.584;2022-10-28T07:53:28;11.38;;;4.07;;
69748;SDS011;57019;52.354;6.584;2022-10-28T07:55:57;11.37;;;4.20;;
69748;SDS011;57019;52.354;6.584;2022-10-28T07:58:24;12.20;;;4.32;;
69748;SDS011;57019;52.354;6.584;2022-10-28T08:00:50;12.77;;;4.28;;
69748;SDS011;57019;52.354;6.584;2022-10-28T08:03:15;12.03;;;4.10;;
69748;SDS011;57019;52.354;6.584;2022-10-28T08:05:41;11.07;;;3.90;;
69748;SDS011;57019;52.354;6.584;2022-10-28T08:08:06;11.53;;;3.90;;
69748;SDS011;57019;52.354;6.584;2022-10-28T08:10:31;11.40;;;3.83;;
69748;SDS011;57019;52.354;6.584;2022-10-28T08:12:56;10.87;;;4.20;;
69748;SDS011;57019;52.354;6.584;2022-10-28T08:15:22;13.83;;;4.03;;
69748;SDS011;57019;52.354;6.584;2022-10-28T08:17:51;9.45;;;3.90;;
69748;SDS011;57019;52.354;6.584;2022-10-28T08:20:17;11.47;;;4.00;;
69748;SDS011;57019;52.354;6.584;2022-10-28T08:22:43;12.90;;;3.85;;
69748;SDS011;57019;52.354;6.584;2022-10-28T08:25:08;10.03;;;3.70;;
69748;SDS011;57019;52.354;6.584;2022-10-28T08:27:34;10.50;;;3.92;;
69748;SDS011;57019;52.354;6.584;2022-10-28T08:29:59;10.83;;;3.80;;
69748;SDS011;57019;52.354;6.584;2022-10-28T08:32:24;10.03;;;3.87;;
69748;SDS011;57019;52.354;6.584;2022-10-28T08:34:50;10.87;;;3.90;;
69748;SDS011;57019;52.354;6.584;2022-10-28T08:37:15;12.20;;;3.93;;
69748;SDS011;57019;52.354;6.584;2022-10-28T08:39:40;10.60;;;4.00;;
69748;SDS011;57019;52.354;6.584;2022-10-28T08:42:20;12.80;;;4.03;;
69748;SDS011;57019;52.354;6.584;2022-10-28T08:50:10;11.82;;;4.45;;
69748;SDS011;57019;52.354;6.584;2022-10-28T08:52:54;10.10;;;3.90;;
69748;SDS011;57019;52.354;6.584;2022-10-28T08:56:03;9.98;;;3.80;;
69748;SDS011;57019;52.354;6.584;2022-10-28T08:58:24;10.48;;;3.88;;
69748;SDS011;57019;52.354;6.584;2022-10-28T09:00:53;10.43;;;3.72;;
69748;SDS011;57019;52.354;6.584;2022-10-28T09:03:21;11.38;;;3.83;;
69748;SDS011;57019;52.354;6.584;2022-10-28T09:05:52;9.03;;;3.50;;
69748;SDS011;57019;52.354;6.584;2022-10-28T09:08:30;10.63;;;3.60;;
69748;SDS011;57019;52.354;6.584;2022-10-28T09:19:15;9.93;;;3.97;;
69748;SDS011;57019;52.354;6.584;2022-10-28T09:22:01;11.07;;;3.90;;
69748;SDS011;57019;52.354;6.584;2022-10-28T09:25:34;9.70;;;3.72;;
69748;SDS011;57019;52.354;6.584;2022-10-28T09:30:56;12.77;;;3.72;;
69748;SDS011;57019;52.354;6.584;2022-10-28T09:35:58;9.18;;;3.40;;
69748;SDS011;57019;52.354;6.584;2022-10-28T09:38:28;9.95;;;3.63;;
69748;SDS011;57019;52.354;6.584;2022-10-28T09:41:05;9.10;;;3.30;;
69748;SDS011;57019;52.354;6.584;2022-10-28T09:43:39;9.63;;;3.58;;
69748;SDS011;57019;52.354;6.584;2022-10-28T09:46:11;10.07;;;3.97;;
69748;SDS011;57019;52.354;6.584;2022-10-28T09:48:43;10.15;;;3.97;;
69748;SDS011;57019;52.354;6.584;2022-10-28T09:51:20;9.38;;;3.30;;
69748;SDS011;57019;52.354;6.584;2022-10-28T09:53:54;10.15;;;3.70;;
69748;SDS011;57019;52.354;6.584;2022-10-28T09:56:21;9.15;;;3.75;;
69748;SDS011;57019;52.354;6.584;2022-10-28T09:58:47;9.90;;;3.57;;
69748;SDS011;57019;52.354;6.584;2022-10-28T10:01:13;10.43;;;3.50;;
69748;SDS011;57019;52.354;6.584;2022-10-28T10:03:40;10.45;;;4.05;;
69748;SDS011;57019;52.354;6.584;2022-10-28T10:06:11;11.18;;;3.60;;
69748;SDS011;57019;52.354;6.584;2022-10-28T10:08:39;9.35;;;3.80;;
69748;SDS011;57019;52.354;6.584;2022-10-28T10:11:06;9.27;;;3.47;;
69748;SDS011;57019;52.354;6.584;2022-10-28T10:13:50;11.17;;;3.57;;
69748;SDS011;57019;52.354;6.584;2022-10-28T10:16:36;11.18;;;3.53;;
69748;SDS011;57019;52.354;6.584;2022-10-28T10:19:08;10.82;;;3.55;;
69748;SDS011;57019;52.354;6.584;2022-10-28T10:21:51;12.68;;;3.50;;
69748;SDS011;57019;52.354;6.584;2022-10-28T10:26:50;10.50;;;3.30;;
69748;SDS011;57019;52.354;6.584;2022-10-28T10:29:17;11.82;;;3.30;;
69748;SDS011;57019;52.354;6.584;2022-10-28T10:31:43;11.60;;;3.40;;
69748;SDS011;57019;52.354;6.584;2022-10-28T10:34:20;8.40;;;3.20;;
69748;SDS011;57019;52.354;6.584;2022-10-28T10:36:50;11.25;;;4.10;;
69748;SDS011;57019;52.354;6.584;2022-10-28T10:39:22;11.67;;;3.20;;
69748;SDS011;57019;52.354;6.584;2022-10-28T10:41:53;10.48;;;3.45;;
69748;SDS011;57019;52.354;6.584;2022-10-28T10:46:44;11.90;;;3.70;;
69748;SDS011;57019;52.354;6.584;2022-10-28T10:49:11;10.73;;;3.30;;
69748;SDS011;57019;52.354;6.584;2022-10-28T10:51:38;10.00;;;3.55;;
69748;SDS011;57019;52.354;6.584;2022-10-28T10:54:14;14.50;;;3.70;;
69748;SDS011;57019;52.354;6.584;2022-10-28T10:56:40;9.88;;;3.80;;
69748;SDS011;57019;52.354;6.584;2022-10-28T10:59:05;12.10;;;3.40;;
69748;SDS011;57019;52.354;6.584;2022-10-28T11:01:45;9.90;;;3.50;;
69748;SDS011;57019;52.354;6.584;2022-10-28T11:04:20;12.40;;;3.60;;
69748;SDS011;57019;52.354;6.584;2022-10-28T11:06:48;9.55;;;3.58;;
69748;SDS011;57019;52.354;6.584;2022-10-28T11:11:50;11.33;;;3.60;;
69748;SDS011;57019;52.354;6.584;2022-10-28T11:14:20;10.20;;;3.55;;
69748;SDS011;57019;52.354;6.584;2022-10-28T11:16:56;10.63;;;3.35;;
69748;SDS011;57019;52.354;6.584;2022-10-28T11:19:31;8.98;;;3.90;;
69748;SDS011;57019;52.354;6.584;2022-10-28T11:30:03;13.00;;;3.72;;
69748;SDS011;57019;52.354;6.584;2022-10-28T11:32:35;10.25;;;3.35;;
69748;SDS011;57019;52.354;6.584;2022-10-28T11:40:29;9.85;;;3.30;;
69748;SDS011;57019;52.354;6.584;2022-10-28T11:43:12;9.73;;;3.55;;
69748;SDS011;57019;52.354;6.584;2022-10-28T11:46:02;9.23;;;3.58;;
69748;SDS011;57019;52.354;6.584;2022-10-28T12:04:56;8.90;;;3.60;;
69748;SDS011;57019;52.354;6.584;2022-10-28T12:15:43;11.77;;;3.42;;
69748;SDS011;57019;52.354;6.584;2022-10-28T12:18:27;12.70;;;3.50;;
69748;SDS011;57019;52.354;6.584;2022-10-28T12:21:30;12.70;;;4.00;;
69748;SDS011;57019;52.354;6.584;2022-10-28T12:23:58;9.85;;;3.30;;
69748;SDS011;57019;52.354;6.584;2022-10-28T12:26:41;17.27;;;3.47;;
69748;SDS011;57019;52.354;6.584;2022-10-28T12:32:08;13.60;;;3.90;;
69748;SDS011;57019;52.354;6.584;2022-10-28T12:35:23;14.70;;;3.80;;
69748;SDS011;57019;52.354;6.584;2022-10-28T12:37:38;14.63;;;3.80;;
69748;SDS011;57019;52.354;6.584;2022-10-28T12:40:20;14.32;;;3.80;;
69748;SDS011;57019;52.354;6.584;2022-10-28T12:43:09;18.23;;;3.90;;
69748;SDS011;57019;52.354;6.584;2022-10-28T12:45:53;16.80;;;4.43;;
69748;SDS011;57019;52.354;6.584;2022-10-28T12:56:50;13.25;;;3.95;;
69748;SDS011;57019;52.354;6.584;2022-10-28T12:59:23;10.73;;;3.90;;
69748;SDS011;57019;52.354;6.584;2022-10-28T13:01:58;11.13;;;3.60;;
69748;SDS011;57019;52.354;6.584;2022-10-28T13:04:26;12.13;;;3.63;;
69748;SDS011;57019;52.354;6.584;2022-10-28T13:15:40;13.07;;;3.80;;
69748;SDS011;57019;52.354;6.584;2022-10-28T13:24:10;12.63;;;3.70;;
69748;SDS011;57019;52.354;6.584;2022-10-28T13:26:40;12.50;;;3.60;;
69748;SDS011;57019;52.354;6.584;2022-10-28T13:29:15;10.70;;;4.00;;
69748;SDS011;57019;52.354;6.584;2022-10-28T13:31:45;10.85;;;3.85;;
69748;SDS011;57019;52.354;6.584;2022-10-28T13:34:12;14.40;;;4.07;;
69748;SDS011;57019;52.354;6.584;2022-10-28T13:36:40;11.70;;;4.38;;
69748;SDS011;57019;52.354;6.584;2022-10-28T13:52:36;15.90;;;4.30;;
69748;SDS011;57019;52.354;6.584;2022-10-28T13:57:43;17.60;;;4.57;;
69748;SDS011;57019;52.354;6.584;2022-10-28T14:02:46;17.63;;;4.43;;
69748;SDS011;57019;52.354;6.584;2022-10-28T14:05:14;16.77;;;4.47;;
69748;SDS011;57019;52.354;6.584;2022-10-28T14:07:58;16.65;;;4.63;;
69748;SDS011;57019;52.354;6.584;2022-10-28T14:10:32;15.57;;;4.45;;
69748;SDS011;57019;52.354;6.584;2022-10-28T14:13:04;14.30;;;4.53;;
69748;SDS011;57019;52.354;6.584;2022-10-28T14:15:31;13.68;;;4.72;;
69748;SDS011;57019;52.354;6.584;2022-10-28T14:18:01;15.63;;;5.30;;
69748;SDS011;57019;52.354;6.584;2022-10-28T14:49:30;13.77;;;4.32;;
69748;SDS011;57019;52.354;6.584;2022-10-28T14:52:16;13.95;;;4.15;;
69748;SDS011;57019;52.354;6.584;2022-10-28T14:57:14;15.87;;;4.10;;
69748;SDS011;57019;52.354;6.584;2022-10-28T14:59:42;12.77;;;3.65;;
69748;SDS011;57019;52.354;6.584;2022-10-28T15:02:15;11.57;;;3.92;;
69748;SDS011;57019;52.354;6.584;2022-10-28T15:04:45;13.32;;;4.20;;
69748;SDS011;57019;52.354;6.584;2022-10-28T15:07:21;14.02;;;4.10;;
69748;SDS011;57019;52.354;6.584;2022-10-28T15:09:48;11.80;;;3.60;;
69748;SDS011;57019;52.354;6.584;2022-10-28T15:12:17;15.38;;;4.15;;
69748;SDS011;57019;52.354;6.584;2022-10-28T15:14:48;11.48;;;3.72;;
69748;SDS011;57019;52.354;6.584;2022-10-28T15:17:23;14.70;;;4.32;;
69748;SDS011;57019;52.354;6.584;2022-10-28T15:19:49;11.10;;;4.50;;
69748;SDS011;57019;52.354;6.584;2022-10-28T15:24:59;13.45;;;3.67;;
69748;SDS011;57019;52.354;6.584;2022-10-28T15:27:27;10.80;;;3.80;;
69748;SDS011;57019;52.354;6.584;2022-10-28T15:29:54;11.57;;;4.15;;
69748;SDS011;57019;52.354;6.584;2022-10-28T15:34:45;14.57;;;4.27;;
69748;SDS011;57019;52.354;6.584;2022-10-28T15:37:17;12.53;;;3.73;;
69748;SDS011;57019;52.354;6.584;2022-10-28T15:39:45;11.77;;;3.70;;
69748;SDS011;57019;52.354;6.584;2022-10-28T15:42:35;13.07;;;4.28;;
69748;SDS011;57019;52.354;6.584;2022-10-28T15:45:02;11.40;;;3.90;;
69748;SDS011;57019;52.354;6.584;2022-10-28T15:47:33;10.98;;;4.00;;
69748;SDS011;57019;52.354;6.584;2022-10-28T15:50:02;14.70;;;4.30;;
69748;SDS011;57019;52.354;6.584;2022-10-28T15:52:30;10.60;;;3.67;;
69748;SDS011;57019;52.354;6.584;2022-10-28T15:55:02;17.38;;;3.83;;
69748;SDS011;57019;52.354;6.584;2022-10-28T15:57:47;12.40;;;3.60;;
69748;SDS011;57019;52.354;6.584;2022-10-28T16:02:48;15.97;;;3.63;;
69748;SDS011;57019;52.354;6.584;2022-10-28T16:08:04;11.10;;;3.97;;
69748;SDS011;57019;52.354;6.584;2022-10-28T16:10:48;10.65;;;3.50;;
69748;SDS011;57019;52.354;6.584;2022-10-28T16:15:47;13.50;;;3.23;;
69748;SDS011;57019;52.354;6.584;2022-10-28T16:18:20;14.75;;;3.88;;
69748;SDS011;57019;52.354;6.584;2022-10-28T16:20:47;12.30;;;3.60;;
69748;SDS011;57019;52.354;6.584;2022-10-28T16:23:14;9.83;;;3.27;;
69748;SDS011;57019;52.354;6.584;2022-10-28T16:25:42;9.77;;;2.95;;
69748;SDS011;57019;52.354;6.584;2022-10-28T16:28:25;9.00;;;3.37;;
69748;SDS011;57019;52.354;6.584;2022-10-28T16:30:55;10.82;;;3.60;;
69748;SDS011;57019;52.354;6.584;2022-10-28T16:33:30;12.75;;;3.17;;
69748;SDS011;57019;52.354;6.584;2022-10-28T16:35:58;12.27;;;3.05;;
69748;SDS011;57019;52.354;6.584;2022-10-28T16:38:24;10.32;;;3.30;;
69748;SDS011;57019;52.354;6.584;2022-10-28T16:40:50;11.73;;;3.40;;
69748;SDS011;57019;52.354;6.584;2022-10-28T16:43:17;12.10;;;3.28;;
69748;SDS011;57019;52.354;6.584;2022-10-28T16:45:45;9.80;;;3.10;;
69748;SDS011;57019;52.354;6.584;2022-10-28T16:48:12;9.68;;;2.90;;
69748;SDS011;57019;52.354;6.584;2022-10-28T16:50:39;12.82;;;3.05;;
69748;SDS011;57019;52.354;6.584;2022-10-28T16:53:05;11.35;;;3.30;;
69748;SDS011;57019;52.354;6.584;2022-10-28T16:55:31;8.60;;;3.00;;
69748;SDS011;57019;52.354;6.584;2022-10-28T16:57:56;11.83;;;3.30;;
69748;SDS011;57019;52.354;6.584;2022-10-28T17:00:21;10.13;;;3.20;;
69748;SDS011;57019;52.354;6.584;2022-10-28T17:02:47;9.83;;;3.00;;
69748;SDS011;57019;52.354;6.584;2022-10-28T17:05:18;9.87;;;2.80;;
69748;SDS011;57019;52.354;6.584;2022-10-28T17:07:45;7.65;;;2.97;;
69748;SDS011;57019;52.354;6.584;2022-10-28T17:10:11;11.13;;;3.13;;
69748;SDS011;57019;52.354;6.584;2022-10-28T17:12:36;10.25;;;3.30;;
69748;SDS011;57019;52.354;6.584;2022-10-28T17:15:02;15.37;;;3.23;;
69748;SDS011;57019;52.354;6.584;2022-10-28T17:17:27;12.17;;;3.23;;
69748;SDS011;57019;52.354;6.584;2022-10-28T17:19:53;10.60;;;3.20;;
69748;SDS011;57019;52.354;6.584;2022-10-28T17:22:18;9.40;;;3.53;;
69748;SDS011;57019;52.354;6.584;2022-10-28T17:24:43;9.00;;;3.10;;
69748;SDS011;57019;52.354;6.584;2022-10-28T17:27:10;11.88;;;4.22;;
69748;SDS011;57019;52.354;6.584;2022-10-28T17:29:36;8.57;;;3.57;;
69748;SDS011;57019;52.354;6.584;2022-10-28T17:32:02;11.05;;;3.65;;
69748;SDS011;57019;52.354;6.584;2022-10-28T17:34:28;8.65;;;3.50;;
69748;SDS011;57019;52.354;6.584;2022-10-28T17:36:54;11.30;;;3.80;;
69748;SDS011;57019;52.354;6.584;2022-10-28T17:39:19;9.00;;;3.30;;
69748;SDS011;57019;52.354;6.584;2022-10-28T17:41:44;11.63;;;4.00;;
69748;SDS011;57019;52.354;6.584;2022-10-28T17:44:10;9.17;;;3.40;;
69748;SDS011;57019;52.354;6.584;2022-10-28T17:46:35;12.50;;;4.07;;
69748;SDS011;57019;52.354;6.584;2022-10-28T17:49:00;8.83;;;3.60;;
69748;SDS011;57019;52.354;6.584;2022-10-28T17:51:32;9.05;;;3.25;;
69748;SDS011;57019;52.354;6.584;2022-10-28T17:53:58;11.73;;;3.27;;
69748;SDS011;57019;52.354;6.584;2022-10-28T17:56:23;8.63;;;2.85;;
69748;SDS011;57019;52.354;6.584;2022-10-28T17:58:51;11.03;;;3.23;;
69748;SDS011;57019;52.354;6.584;2022-10-28T18:01:17;7.78;;;2.60;;
69748;SDS011;57019;52.354;6.584;2022-10-28T18:03:43;10.50;;;3.27;;